Aviation Digital Data Service (ADDS)

Output produced by METARs form (1421 UTC 23 January 2019)
found at http://www.aviationweather.gov/metar/data/
 
METAR text: UIAA 231400Z AUTO 00000MPS 9999 NCD M20/M22 Q1025 RMK QFE710/0947
Conditions at: UIAA (CITA/KADALA , RU) observed 1400 UTC 23 January 2019
Temperature: -20.0°C (-4°F)
Dewpoint: -22.0°C (-8°F) [RH = 84%]
Pressure (altimeter): 30.27 inches Hg (1025.0 mb)
Winds: calm
Visibility: 6 or more miles (10+ km)
Ceiling: at least 12,000 feet AGL
Clouds: sky clear below 12,000 feet AGL
Weather: no significant weather observed at this time

METAR text: UIAA 231330Z AUTO 01001MPS 9999 NCD M21/M24 Q1025 RMK QFE710/0947
Conditions at: UIAA (CITA/KADALA , RU) observed 1330 UTC 23 January 2019
Temperature: -21.0°C (-6°F)
Dewpoint: -24.0°C (-11°F) [RH = 77%]
Pressure (altimeter): 30.27 inches Hg (1025.0 mb)
Winds: from the N (10 degrees) at 2 MPH (2 knots; 1.0 m/s)
Visibility: 6 or more miles (10+ km)
Ceiling: at least 12,000 feet AGL
Clouds: sky clear below 12,000 feet AGL
Weather: no significant weather observed at this time

METAR text: UIAA 231300Z AUTO 00000MPS 9999 NCD M20/M23 Q1025 RMK QFE710/0947
Conditions at: UIAA (CITA/KADALA , RU) observed 1300 UTC 23 January 2019
Temperature: -20.0°C (-4°F)
Dewpoint: -23.0°C (-9°F) [RH = 77%]
Pressure (altimeter): 30.27 inches Hg (1025.0 mb)
Winds: calm
Visibility: 6 or more miles (10+ km)
Ceiling: at least 12,000 feet AGL
Clouds: sky clear below 12,000 feet AGL
Weather: no significant weather observed at this time

METAR text: UIAA 231230Z 00000MPS 9999 NSC M19/M21 Q1025 R29/410150 NOSIG RMK QFE710/0947
Conditions at: UIAA (CITA/KADALA , RU) observed 1230 UTC 23 January 2019
Temperature: -19.0°C (-2°F)
Dewpoint: -21.0°C (-6°F) [RH = 84%]
Pressure (altimeter): 30.27 inches Hg (1025.0 mb)
Winds: calm
Visibility: 6 or more miles (10+ km)
Ceiling: at least 12,000 feet AGL
Clouds: sky clear below 12,000 feet AGL
Weather: no significant weather observed at this time

METAR text: UIAA 231200Z 26001MPS 9000 NSC M19/M22 Q1025 R29/410150 NOSIG RMK QFE710/0946
Conditions at: UIAA (CITA/KADALA , RU) observed 1200 UTC 23 January 2019
Temperature: -19.0°C (-2°F)
Dewpoint: -22.0°C (-8°F) [RH = 77%]
Pressure (altimeter): 30.27 inches Hg (1025.0 mb)
Winds: from the W (260 degrees) at 2 MPH (2 knots; 1.0 m/s)
Visibility: 6 miles ( 9 km)
Ceiling: at least 12,000 feet AGL
Clouds: sky clear below 12,000 feet AGL
Weather: no significant weather observed at this time

METAR text: UIAA 231130Z VRB01MPS 9000 NSC M19/M22 Q1025 R29/410150 NOSIG RMK QFE710/0946
Conditions at: UIAA (CITA/KADALA , RU) observed 1130 UTC 23 January 2019
Temperature: -19.0°C (-2°F)
Dewpoint: -22.0°C (-8°F) [RH = 77%]
Pressure (altimeter): 30.27 inches Hg (1025.0 mb)
Winds: variable direction winds at 2 MPH (2 knots; 1.0 m/s)
Visibility: 6 miles ( 9 km)
Ceiling: at least 12,000 feet AGL
Clouds: sky clear below 12,000 feet AGL
Weather: no significant weather observed at this time

METAR text: UIAA 231100Z 28001MPS 9000 NSC M18/M21 Q1024 R29/410150 NOSIG RMK QFE709/0946
Conditions at: UIAA (CITA/KADALA , RU) observed 1100 UTC 23 January 2019
Temperature: -18.0°C (-0°F)
Dewpoint: -21.0°C (-6°F) [RH = 77%]
Pressure (altimeter): 30.24 inches Hg (1024.0 mb)
Winds: from the W (280 degrees) at 2 MPH (2 knots; 1.0 m/s)
Visibility: 6 miles ( 9 km)
Ceiling: at least 12,000 feet AGL
Clouds: sky clear below 12,000 feet AGL
Weather: no significant weather observed at this time

METAR text: UIAA 231030Z 29002MPS 9000 NSC M18/M21 Q1024 R29/410150 NOSIG RMK QFE709/0946
Conditions at: UIAA (CITA/KADALA , RU) observed 1030 UTC 23 January 2019
Temperature: -18.0°C (-0°F)
Dewpoint: -21.0°C (-6°F) [RH = 77%]
Pressure (altimeter): 30.24 inches Hg (1024.0 mb)
Winds: from the WNW (290 degrees) at 5 MPH (4 knots; 2.1 m/s)
Visibility: 6 miles ( 9 km)
Ceiling: at least 12,000 feet AGL
Clouds: sky clear below 12,000 feet AGL
Weather: no significant weather observed at this time

METAR text: UIAA 231000Z 29001MPS 9000 NSC M16/M20 Q1024 R29/410150 NOSIG RMK QFE709/0946
Conditions at: UIAA (CITA/KADALA , RU) observed 1000 UTC 23 January 2019
Temperature: -16.0°C ( 3°F)
Dewpoint: -20.0°C (-4°F) [RH = 71%]
Pressure (altimeter): 30.24 inches Hg (1024.0 mb)
Winds: from the WNW (290 degrees) at 2 MPH (2 knots; 1.0 m/s)
Visibility: 6 miles ( 9 km)
Ceiling: at least 12,000 feet AGL
Clouds: sky clear below 12,000 feet AGL
Weather: no significant weather observed at this time

METAR text: UIAA 230930Z 00000MPS 9000 NSC M15/M19 Q1024 R29/410150 NOSIG RMK QFE709/0945
Conditions at: UIAA (CITA/KADALA , RU) observed 0930 UTC 23 January 2019
Temperature: -15.0°C ( 5°F)
Dewpoint: -19.0°C (-2°F) [RH = 71%]
Pressure (altimeter): 30.24 inches Hg (1024.0 mb)
Winds: calm
Visibility: 6 miles ( 9 km)
Ceiling: at least 12,000 feet AGL
Clouds: sky clear below 12,000 feet AGL
Weather: no significant weather observed at this time

METAR text: UIAA 230900Z 00000MPS 9999 NSC M14/M19 Q1023 R29/410150 NOSIG RMK QFE709/0945
Conditions at: UIAA (CITA/KADALA , RU) observed 0900 UTC 23 January 2019
Temperature: -14.0°C ( 7°F)
Dewpoint: -19.0°C (-2°F) [RH = 66%]
Pressure (altimeter): 30.21 inches Hg (1023.0 mb)
Winds: calm
Visibility: 6 or more miles (10+ km)
Ceiling: at least 12,000 feet AGL
Clouds: sky clear below 12,000 feet AGL
Weather: no significant weather observed at this time

METAR text: UIAA 230830Z 00000MPS 9999 NSC M12/M19 Q1023 R29/410150 NOSIG RMK QFE708/0945
Conditions at: UIAA (CITA/KADALA , RU) observed 0830 UTC 23 January 2019
Temperature: -12.0°C (10°F)
Dewpoint: -19.0°C (-2°F) [RH = 56%]
Pressure (altimeter): 30.21 inches Hg (1023.0 mb)
Winds: calm
Visibility: 6 or more miles (10+ km)
Ceiling: at least 12,000 feet AGL
Clouds: sky clear below 12,000 feet AGL
Weather: no significant weather observed at this time

METAR text: UIAA 230800Z 00000MPS 9999 NSC M12/M19 Q1023 R29/410150 NOSIG RMK QFE708/0945
Conditions at: UIAA (CITA/KADALA , RU) observed 0800 UTC 23 January 2019
Temperature: -12.0°C (10°F)
Dewpoint: -19.0°C (-2°F) [RH = 56%]
Pressure (altimeter): 30.21 inches Hg (1023.0 mb)
Winds: calm
Visibility: 6 or more miles (10+ km)
Ceiling: at least 12,000 feet AGL
Clouds: sky clear below 12,000 feet AGL
Weather: no significant weather observed at this time

METAR text: UIAA 230730Z 00000MPS 9999 NSC M11/M18 Q1023 R29/410150 NOSIG RMK QFE708/0944
Conditions at: UIAA (CITA/KADALA , RU) observed 0730 UTC 23 January 2019
Temperature: -11.0°C (12°F)
Dewpoint: -18.0°C (-0°F) [RH = 56%]
Pressure (altimeter): 30.21 inches Hg (1023.0 mb)
Winds: calm
Visibility: 6 or more miles (10+ km)
Ceiling: at least 12,000 feet AGL
Clouds: sky clear below 12,000 feet AGL
Weather: no significant weather observed at this time

METAR text: UIAA 230700Z VRB01MPS 9999 FEW043CB M12/M18 Q1023 R29/410150 NOSIG RMK QFE708/0944
Conditions at: UIAA (CITA/KADALA , RU) observed 0700 UTC 23 January 2019
Temperature: -12.0°C (10°F)
Dewpoint: -18.0°C (-0°F) [RH = 61%]
Pressure (altimeter): 30.21 inches Hg (1023.0 mb)
Winds: variable direction winds at 2 MPH (2 knots; 1.0 m/s)
Visibility: 6 or more miles (10+ km)
Ceiling: at least 12,000 feet AGL
Clouds: few clouds at 4300 feet AGL
Weather: no significant weather observed at this time

METAR text: UIAA 230630Z 00000MPS 9999 SCT043CB M12/M19 Q1023 R29/410150 NOSIG RMK QFE708/0944
Conditions at: UIAA (CITA/KADALA , RU) observed 0630 UTC 23 January 2019
Temperature: -12.0°C (10°F)
Dewpoint: -19.0°C (-2°F) [RH = 56%]
Pressure (altimeter): 30.21 inches Hg (1023.0 mb)
Winds: calm
Visibility: 6 or more miles (10+ km)
Ceiling: at least 12,000 feet AGL
Clouds: scattered clouds at 4300 feet AGL
Weather: no significant weather observed at this time

METAR text: UIAA 230600Z 00000MPS 9000 -SHSN SCT043CB M13/M19 Q1023 R29/410150 NOSIG RMK QFE708/0944
Conditions at: UIAA (CITA/KADALA , RU) observed 0600 UTC 23 January 2019
Temperature: -13.0°C ( 9°F)
Dewpoint: -19.0°C (-2°F) [RH = 61%]
Pressure (altimeter): 30.21 inches Hg (1023.0 mb)
Winds: calm
Visibility: 6 miles ( 9 km)
Ceiling: at least 12,000 feet AGL
Clouds: scattered clouds at 4300 feet AGL
Weather: -SHSN  (light snow showers)

METAR text: UIAA 230530Z 00000MPS 9999 NSC M13/M20 Q1023 R29/410150 NOSIG RMK QFE708/0944
Conditions at: UIAA (CITA/KADALA , RU) observed 0530 UTC 23 January 2019
Temperature: -13.0°C ( 9°F)
Dewpoint: -20.0°C (-4°F) [RH = 56%]
Pressure (altimeter): 30.21 inches Hg (1023.0 mb)
Winds: calm
Visibility: 6 or more miles (10+ km)
Ceiling: at least 12,000 feet AGL
Clouds: sky clear below 12,000 feet AGL
Weather: no significant weather observed at this time

METAR text: UIAA 230500Z VRB01MPS 9999 NSC M14/M20 Q1023 R29/410150 NOSIG RMK QFE708/0945
Conditions at: UIAA (CITA/KADALA , RU) observed 0500 UTC 23 January 2019
Temperature: -14.0°C ( 7°F)
Dewpoint: -20.0°C (-4°F) [RH = 60%]
Pressure (altimeter): 30.21 inches Hg (1023.0 mb)
Winds: variable direction winds at 2 MPH (2 knots; 1.0 m/s)
Visibility: 6 or more miles (10+ km)
Ceiling: at least 12,000 feet AGL
Clouds: sky clear below 12,000 feet AGL
Weather: no significant weather observed at this time

METAR text: UIAA 230430Z 00000MPS 9999 NSC M14/M20 Q1023 R29/410150 NOSIG RMK QFE708/0945
Conditions at: UIAA (CITA/KADALA , RU) observed 0430 UTC 23 January 2019
Temperature: -14.0°C ( 7°F)
Dewpoint: -20.0°C (-4°F) [RH = 60%]
Pressure (altimeter): 30.21 inches Hg (1023.0 mb)
Winds: calm
Visibility: 6 or more miles (10+ km)
Ceiling: at least 12,000 feet AGL
Clouds: sky clear below 12,000 feet AGL
Weather: no significant weather observed at this time

METAR text: UIAA 230400Z 00000MPS 9999 NSC M15/M21 Q1023 R29/410150 NOSIG RMK QFE709/0945
Conditions at: UIAA (CITA/KADALA , RU) observed 0400 UTC 23 January 2019
Temperature: -15.0°C ( 5°F)
Dewpoint: -21.0°C (-6°F) [RH = 60%]
Pressure (altimeter): 30.21 inches Hg (1023.0 mb)
Winds: calm
Visibility: 6 or more miles (10+ km)
Ceiling: at least 12,000 feet AGL
Clouds: sky clear below 12,000 feet AGL
Weather: no significant weather observed at this time

METAR text: UIAA 230330Z 00000MPS 9999 NSC M16/M21 Q1024 R29/410150 NOSIG RMK QFE709/0945
Conditions at: UIAA (CITA/KADALA , RU) observed 0330 UTC 23 January 2019
Temperature: -16.0°C ( 3°F)
Dewpoint: -21.0°C (-6°F) [RH = 65%]
Pressure (altimeter): 30.24 inches Hg (1024.0 mb)
Winds: calm
Visibility: 6 or more miles (10+ km)
Ceiling: at least 12,000 feet AGL
Clouds: sky clear below 12,000 feet AGL
Weather: no significant weather observed at this time

METAR text: UIAA 230300Z 00000MPS 9999 NSC M17/M22 Q1024 R29/410150 NOSIG RMK QFE709/0945
Conditions at: UIAA (CITA/KADALA , RU) observed 0300 UTC 23 January 2019
Temperature: -17.0°C ( 1°F)
Dewpoint: -22.0°C (-8°F) [RH = 65%]
Pressure (altimeter): 30.24 inches Hg (1024.0 mb)
Winds: calm
Visibility: 6 or more miles (10+ km)
Ceiling: at least 12,000 feet AGL
Clouds: sky clear below 12,000 feet AGL
Weather: no significant weather observed at this time

METAR text: UIAA 230230Z 00000MPS 9999 NSC M18/M22 Q1024 R29/410150 NOSIG RMK QFE709/0945
Conditions at: UIAA (CITA/KADALA , RU) observed 0230 UTC 23 January 2019
Temperature: -18.0°C (-0°F)
Dewpoint: -22.0°C (-8°F) [RH = 71%]
Pressure (altimeter): 30.24 inches Hg (1024.0 mb)
Winds: calm
Visibility: 6 or more miles (10+ km)
Ceiling: at least 12,000 feet AGL
Clouds: sky clear below 12,000 feet AGL
Weather: no significant weather observed at this time

METAR text: UIAA 230200Z 00000MPS 9999 NSC M18/M22 Q1024 R29/410150 NOSIG RMK QFE709/0945
Conditions at: UIAA (CITA/KADALA , RU) observed 0200 UTC 23 January 2019
Temperature: -18.0°C (-0°F)
Dewpoint: -22.0°C (-8°F) [RH = 71%]
Pressure (altimeter): 30.24 inches Hg (1024.0 mb)
Winds: calm
Visibility: 6 or more miles (10+ km)
Ceiling: at least 12,000 feet AGL
Clouds: sky clear below 12,000 feet AGL
Weather: no significant weather observed at this time

METAR text: UIAA 230130Z 08001MPS 9999 NSC M19/M23 Q1023 R29/410150 NOSIG RMK QFE709/0945
Conditions at: UIAA (CITA/KADALA , RU) observed 0130 UTC 23 January 2019
Temperature: -19.0°C (-2°F)
Dewpoint: -23.0°C (-9°F) [RH = 71%]
Pressure (altimeter): 30.21 inches Hg (1023.0 mb)
Winds: from the E (80 degrees) at 2 MPH (2 knots; 1.0 m/s)
Visibility: 6 or more miles (10+ km)
Ceiling: at least 12,000 feet AGL
Clouds: sky clear below 12,000 feet AGL
Weather: no significant weather observed at this time

METAR text: UIAA 230100Z 00000MPS 9999 NSC M19/M23 Q1023 R29/410150 NOSIG RMK QFE709/0945
Conditions at: UIAA (CITA/KADALA , RU) observed 0100 UTC 23 January 2019
Temperature: -19.0°C (-2°F)
Dewpoint: -23.0°C (-9°F) [RH = 71%]
Pressure (altimeter): 30.21 inches Hg (1023.0 mb)
Winds: calm
Visibility: 6 or more miles (10+ km)
Ceiling: at least 12,000 feet AGL
Clouds: sky clear below 12,000 feet AGL
Weather: no significant weather observed at this time

METAR text: UIAA 230030Z 03001MPS 9999 NSC M19/M23 Q1023 R29/410150 NOSIG RMK QFE708/0944
Conditions at: UIAA (CITA/KADALA , RU) observed 0030 UTC 23 January 2019
Temperature: -19.0°C (-2°F)
Dewpoint: -23.0°C (-9°F) [RH = 71%]
Pressure (altimeter): 30.21 inches Hg (1023.0 mb)
Winds: from the NNE (30 degrees) at 2 MPH (2 knots; 1.0 m/s)
Visibility: 6 or more miles (10+ km)
Ceiling: at least 12,000 feet AGL
Clouds: sky clear below 12,000 feet AGL
Weather: no significant weather observed at this time

METAR text: UIAA 230000Z 02001MPS 9999 NSC M19/M24 Q1023 R29/410150 NOSIG RMK QFE708/0944
Conditions at: UIAA (CITA/KADALA , RU) observed 0000 UTC 23 January 2019
Temperature: -19.0°C (-2°F)
Dewpoint: -24.0°C (-11°F) [RH = 65%]
Pressure (altimeter): 30.21 inches Hg (1023.0 mb)
Winds: from the NNE (20 degrees) at 2 MPH (2 knots; 1.0 m/s)
Visibility: 6 or more miles (10+ km)
Ceiling: at least 12,000 feet AGL
Clouds: sky clear below 12,000 feet AGL
Weather: no significant weather observed at this time

METAR text: UIAA 222330Z 06001MPS 9999 NSC M19/M23 Q1022 R29/410150 NOSIG RMK QFE708/0944
Conditions at: UIAA (CITA/KADALA , RU) observed 2330 UTC 22 January 2019
Temperature: -19.0°C (-2°F)
Dewpoint: -23.0°C (-9°F) [RH = 71%]
Pressure (altimeter): 30.18 inches Hg (1022.0 mb)
Winds: from the ENE (60 degrees) at 2 MPH (2 knots; 1.0 m/s)
Visibility: 6 or more miles (10+ km)
Ceiling: at least 12,000 feet AGL
Clouds: sky clear below 12,000 feet AGL
Weather: no significant weather observed at this time

METAR text: UIAA 222300Z 07001MPS 9999 NSC M20/M23 Q1022 R29/410150 NOSIG RMK QFE708/0944
Conditions at: UIAA (CITA/KADALA , RU) observed 2300 UTC 22 January 2019
Temperature: -20.0°C (-4°F)
Dewpoint: -23.0°C (-9°F) [RH = 77%]
Pressure (altimeter): 30.18 inches Hg (1022.0 mb)
Winds: from the ENE (70 degrees) at 2 MPH (2 knots; 1.0 m/s)
Visibility: 6 or more miles (10+ km)
Ceiling: at least 12,000 feet AGL
Clouds: sky clear below 12,000 feet AGL
Weather: no significant weather observed at this time

METAR text: UIAA 222230Z 05001MPS 9999 NSC M20/M24 Q1022 R29/410150 NOSIG RMK QFE708/0944
Conditions at: UIAA (CITA/KADALA , RU) observed 2230 UTC 22 January 2019
Temperature: -20.0°C (-4°F)
Dewpoint: -24.0°C (-11°F) [RH = 70%]
Pressure (altimeter): 30.18 inches Hg (1022.0 mb)
Winds: from the NE (50 degrees) at 2 MPH (2 knots; 1.0 m/s)
Visibility: 6 or more miles (10+ km)
Ceiling: at least 12,000 feet AGL
Clouds: sky clear below 12,000 feet AGL
Weather: no significant weather observed at this time

METAR text: UIAA 222200Z 02003MPS 9999 NSC M20/M24 Q1022 R29/410150 NOSIG RMK QFE708/0944
Conditions at: UIAA (CITA/KADALA , RU) observed 2200 UTC 22 January 2019
Temperature: -20.0°C (-4°F)
Dewpoint: -24.0°C (-11°F) [RH = 70%]
Pressure (altimeter): 30.18 inches Hg (1022.0 mb)
Winds: from the NNE (20 degrees) at 7 MPH (6 knots; 3.1 m/s)
Visibility: 6 or more miles (10+ km)
Ceiling: at least 12,000 feet AGL
Clouds: sky clear below 12,000 feet AGL
Weather: no significant weather observed at this time

METAR text: UIAA 222130Z 01001MPS 9999 NSC M20/M24 Q1022 R29/410150 NOSIG RMK QFE708/0944
Conditions at: UIAA (CITA/KADALA , RU) observed 2130 UTC 22 January 2019
Temperature: -20.0°C (-4°F)
Dewpoint: -24.0°C (-11°F) [RH = 70%]
Pressure (altimeter): 30.18 inches Hg (1022.0 mb)
Winds: from the N (10 degrees) at 2 MPH (2 knots; 1.0 m/s)
Visibility: 6 or more miles (10+ km)
Ceiling: at least 12,000 feet AGL
Clouds: sky clear below 12,000 feet AGL
Weather: no significant weather observed at this time

METAR text: UIAA 222100Z 10001MPS 9999 NSC M20/M24 Q1022 R29/410150 NOSIG RMK QFE708/0944
Conditions at: UIAA (CITA/KADALA , RU) observed 2100 UTC 22 January 2019
Temperature: -20.0°C (-4°F)
Dewpoint: -24.0°C (-11°F) [RH = 70%]
Pressure (altimeter): 30.18 inches Hg (1022.0 mb)
Winds: from the E (100 degrees) at 2 MPH (2 knots; 1.0 m/s)
Visibility: 6 or more miles (10+ km)
Ceiling: at least 12,000 feet AGL
Clouds: sky clear below 12,000 feet AGL
Weather: no significant weather observed at this time

METAR text: UIAA 222030Z 01002MPS 9999 NSC M20/M24 Q1022 R29/410150 NOSIG RMK QFE708/0944
Conditions at: UIAA (CITA/KADALA , RU) observed 2030 UTC 22 January 2019
Temperature: -20.0°C (-4°F)
Dewpoint: -24.0°C (-11°F) [RH = 70%]
Pressure (altimeter): 30.18 inches Hg (1022.0 mb)
Winds: from the N (10 degrees) at 5 MPH (4 knots; 2.1 m/s)
Visibility: 6 or more miles (10+ km)
Ceiling: at least 12,000 feet AGL
Clouds: sky clear below 12,000 feet AGL
Weather: no significant weather observed at this time

METAR text: UIAA 222000Z 03002MPS 9999 NSC M20/M24 Q1022 R29/410150 NOSIG RMK QFE708/0944
Conditions at: UIAA (CITA/KADALA , RU) observed 2000 UTC 22 January 2019
Temperature: -20.0°C (-4°F)
Dewpoint: -24.0°C (-11°F) [RH = 70%]
Pressure (altimeter): 30.18 inches Hg (1022.0 mb)
Winds: from the NNE (30 degrees) at 5 MPH (4 knots; 2.1 m/s)
Visibility: 6 or more miles (10+ km)
Ceiling: at least 12,000 feet AGL
Clouds: sky clear below 12,000 feet AGL
Weather: no significant weather observed at this time

METAR text: UIAA 221930Z 02002MPS 9999 NSC M20/M24 Q1022 R29/410150 NOSIG RMK QFE708/0944
Conditions at: UIAA (CITA/KADALA , RU) observed 1930 UTC 22 January 2019
Temperature: -20.0°C (-4°F)
Dewpoint: -24.0°C (-11°F) [RH = 70%]
Pressure (altimeter): 30.18 inches Hg (1022.0 mb)
Winds: from the NNE (20 degrees) at 5 MPH (4 knots; 2.1 m/s)
Visibility: 6 or more miles (10+ km)
Ceiling: at least 12,000 feet AGL
Clouds: sky clear below 12,000 feet AGL
Weather: no significant weather observed at this time

METAR text: UIAA 221900Z 03001MPS 9999 NSC M20/M23 Q1022 R29/410150 NOSIG RMK QFE708/0944
Conditions at: UIAA (CITA/KADALA , RU) observed 1900 UTC 22 January 2019
Temperature: -20.0°C (-4°F)
Dewpoint: -23.0°C (-9°F) [RH = 77%]
Pressure (altimeter): 30.18 inches Hg (1022.0 mb)
Winds: from the NNE (30 degrees) at 2 MPH (2 knots; 1.0 m/s)
Visibility: 6 or more miles (10+ km)
Ceiling: at least 12,000 feet AGL
Clouds: sky clear below 12,000 feet AGL
Weather: no significant weather observed at this time

METAR text: UIAA 221830Z AUTO 01003MPS 9999 NCD M20/M23 Q1022 RMK QFE707/0943
Conditions at: UIAA (CITA/KADALA , RU) observed 1830 UTC 22 January 2019
Temperature: -20.0°C (-4°F)
Dewpoint: -23.0°C (-9°F) [RH = 77%]
Pressure (altimeter): 30.18 inches Hg (1022.0 mb)
Winds: from the N (10 degrees) at 7 MPH (6 knots; 3.1 m/s)
Visibility: 6 or more miles (10+ km)
Ceiling: at least 12,000 feet AGL
Clouds: sky clear below 12,000 feet AGL
Weather: no significant weather observed at this time

METAR text: UIAA 221800Z AUTO 04002MPS 9999 NCD M20/M23 Q1021 RMK QFE707/0943
Conditions at: UIAA (CITA/KADALA , RU) observed 1800 UTC 22 January 2019
Temperature: -20.0°C (-4°F)
Dewpoint: -23.0°C (-9°F) [RH = 77%]
Pressure (altimeter): 30.15 inches Hg (1021.0 mb)
Winds: from the NE (40 degrees) at 5 MPH (4 knots; 2.1 m/s)
Visibility: 6 or more miles (10+ km)
Ceiling: at least 12,000 feet AGL
Clouds: sky clear below 12,000 feet AGL
Weather: no significant weather observed at this time

METAR text: UIAA 221730Z AUTO 01001MPS 9999 NCD M19/M22 Q1021 RMK QFE707/0943
Conditions at: UIAA (CITA/KADALA , RU) observed 1730 UTC 22 January 2019
Temperature: -19.0°C (-2°F)
Dewpoint: -22.0°C (-8°F) [RH = 77%]
Pressure (altimeter): 30.15 inches Hg (1021.0 mb)
Winds: from the N (10 degrees) at 2 MPH (2 knots; 1.0 m/s)
Visibility: 6 or more miles (10+ km)
Ceiling: at least 12,000 feet AGL
Clouds: sky clear below 12,000 feet AGL
Weather: no significant weather observed at this time

METAR text: UIAA 221700Z AUTO 04001MPS 9999 NCD M19/M22 Q1021 RMK QFE707/0943
Conditions at: UIAA (CITA/KADALA , RU) observed 1700 UTC 22 January 2019
Temperature: -19.0°C (-2°F)
Dewpoint: -22.0°C (-8°F) [RH = 77%]
Pressure (altimeter): 30.15 inches Hg (1021.0 mb)
Winds: from the NE (40 degrees) at 2 MPH (2 knots; 1.0 m/s)
Visibility: 6 or more miles (10+ km)
Ceiling: at least 12,000 feet AGL
Clouds: sky clear below 12,000 feet AGL
Weather: no significant weather observed at this time

METAR text: UIAA 221630Z AUTO 01002MPS 9999 NCD M18/M22 Q1020 RMK QFE707/0942
Conditions at: UIAA (CITA/KADALA , RU) observed 1630 UTC 22 January 2019
Temperature: -18.0°C (-0°F)
Dewpoint: -22.0°C (-8°F) [RH = 71%]
Pressure (altimeter): 30.12 inches Hg (1020.0 mb)
Winds: from the N (10 degrees) at 5 MPH (4 knots; 2.1 m/s)
Visibility: 6 or more miles (10+ km)
Ceiling: at least 12,000 feet AGL
Clouds: sky clear below 12,000 feet AGL
Weather: no significant weather observed at this time

METAR text: UIAA 221600Z AUTO 02003MPS 9999 NCD M17/M21 Q1020 RMK QFE707/0942
Conditions at: UIAA (CITA/KADALA , RU) observed 1600 UTC 22 January 2019
Temperature: -17.0°C ( 1°F)
Dewpoint: -21.0°C (-6°F) [RH = 71%]
Pressure (altimeter): 30.12 inches Hg (1020.0 mb)
Winds: from the NNE (20 degrees) at 7 MPH (6 knots; 3.1 m/s)
Visibility: 6 or more miles (10+ km)
Ceiling: at least 12,000 feet AGL
Clouds: sky clear below 12,000 feet AGL
Weather: no significant weather observed at this time

METAR text: UIAA 221530Z AUTO 00000MPS 9999 ///004/// M18/M22 Q1020 RMK MT OBSC QFE706/0942
Conditions at: UIAA (CITA/KADALA , RU) observed 1530 UTC 22 January 2019
Temperature: -18.0°C (-0°F)
Dewpoint: -22.0°C (-8°F) [RH = 71%]
Pressure (altimeter): 30.12 inches Hg (1020.0 mb)
Winds: calm
Visibility: 6 or more miles (10+ km)
Ceiling: unknown
Clouds: missing
Weather: no significant weather observed at this time

METAR text: UIAA 221500Z AUTO VRB01MPS 9999 NCD M18/M21 Q1020 RMK QFE706/0942
Conditions at: UIAA (CITA/KADALA , RU) observed 1500 UTC 22 January 2019
Temperature: -18.0°C (-0°F)
Dewpoint: -21.0°C (-6°F) [RH = 77%]
Pressure (altimeter): 30.12 inches Hg (1020.0 mb)
Winds: variable direction winds at 2 MPH (2 knots; 1.0 m/s)
Visibility: 6 or more miles (10+ km)
Ceiling: at least 12,000 feet AGL
Clouds: sky clear below 12,000 feet AGL
Weather: no significant weather observed at this time

METAR text: UIAA 221430Z AUTO VRB01MPS 9999 NCD M17/M21 Q1020 RMK QFE706/0942
Conditions at: UIAA (CITA/KADALA , RU) observed 1430 UTC 22 January 2019
Temperature: -17.0°C ( 1°F)
Dewpoint: -21.0°C (-6°F) [RH = 71%]
Pressure (altimeter): 30.12 inches Hg (1020.0 mb)
Winds: variable direction winds at 2 MPH (2 knots; 1.0 m/s)
Visibility: 6 or more miles (10+ km)
Ceiling: at least 12,000 feet AGL
Clouds: sky clear below 12,000 feet AGL
Weather: no significant weather observed at this time

METAR text: UIAA 221400Z AUTO VRB01MPS 9999 NCD M18/M20 Q1020 RMK QFE706/0941
Conditions at: UIAA (CITA/KADALA , RU) observed 1400 UTC 22 January 2019
Temperature: -18.0°C (-0°F)
Dewpoint: -20.0°C (-4°F) [RH = 84%]
Pressure (altimeter): 30.12 inches Hg (1020.0 mb)
Winds: variable direction winds at 2 MPH (2 knots; 1.0 m/s)
Visibility: 6 or more miles (10+ km)
Ceiling: at least 12,000 feet AGL
Clouds: sky clear below 12,000 feet AGL
Weather: no significant weather observed at this time

METAR text: UIAA 221330Z AUTO 31002MPS 9999 NCD M17/M20 Q1019 RMK QFE706/0941
Conditions at: UIAA (CITA/KADALA , RU) observed 1330 UTC 22 January 2019
Temperature: -17.0°C ( 1°F)
Dewpoint: -20.0°C (-4°F) [RH = 77%]
Pressure (altimeter): 30.09 inches Hg (1019.0 mb)
Winds: from the NW (310 degrees) at 5 MPH (4 knots; 2.1 m/s)
Visibility: 6 or more miles (10+ km)
Ceiling: at least 12,000 feet AGL
Clouds: sky clear below 12,000 feet AGL
Weather: no significant weather observed at this time

METAR text: UIAA 221300Z AUTO 25001MPS 9999 NCD M16/M19 Q1019 RMK QFE705/0941
Conditions at: UIAA (CITA/KADALA , RU) observed 1300 UTC 22 January 2019
Temperature: -16.0°C ( 3°F)
Dewpoint: -19.0°C (-2°F) [RH = 78%]
Pressure (altimeter): 30.09 inches Hg (1019.0 mb)
Winds: from the WSW (250 degrees) at 2 MPH (2 knots; 1.0 m/s)
Visibility: 6 or more miles (10+ km)
Ceiling: at least 12,000 feet AGL
Clouds: sky clear below 12,000 feet AGL
Weather: no significant weather observed at this time

METAR text: UIAA 221230Z 28002MPS 9999 NSC M17/M20 Q1019 R29/410150 NOSIG RMK QFE705/0940
Conditions at: UIAA (CITA/KADALA , RU) observed 1230 UTC 22 January 2019
Temperature: -17.0°C ( 1°F)
Dewpoint: -20.0°C (-4°F) [RH = 77%]
Pressure (altimeter): 30.09 inches Hg (1019.0 mb)
Winds: from the W (280 degrees) at 5 MPH (4 knots; 2.1 m/s)
Visibility: 6 or more miles (10+ km)
Ceiling: at least 12,000 feet AGL
Clouds: sky clear below 12,000 feet AGL
Weather: no significant weather observed at this time

METAR text: UIAA 221200Z 29001MPS 9999 NSC M16/M19 Q1018 R29/410150 NOSIG RMK QFE705/0940
Conditions at: UIAA (CITA/KADALA , RU) observed 1200 UTC 22 January 2019
Temperature: -16.0°C ( 3°F)
Dewpoint: -19.0°C (-2°F) [RH = 78%]
Pressure (altimeter): 30.06 inches Hg (1018.0 mb)
Winds: from the WNW (290 degrees) at 2 MPH (2 knots; 1.0 m/s)
Visibility: 6 or more miles (10+ km)
Ceiling: at least 12,000 feet AGL
Clouds: sky clear below 12,000 feet AGL
Weather: no significant weather observed at this time

METAR text: UIAA 221130Z VRB01MPS 9999 NSC M14/M18 Q1018 R29/410150 NOSIG RMK QFE705/0940
Conditions at: UIAA (CITA/KADALA , RU) observed 1130 UTC 22 January 2019
Temperature: -14.0°C ( 7°F)
Dewpoint: -18.0°C (-0°F) [RH = 72%]
Pressure (altimeter): 30.06 inches Hg (1018.0 mb)
Winds: variable direction winds at 2 MPH (2 knots; 1.0 m/s)
Visibility: 6 or more miles (10+ km)
Ceiling: at least 12,000 feet AGL
Clouds: sky clear below 12,000 feet AGL
Weather: no significant weather observed at this time

METAR text: UIAA 221100Z VRB01MPS 9999 NSC M12/M18 Q1018 R29/410150 NOSIG RMK QFE704/0939
Conditions at: UIAA (CITA/KADALA , RU) observed 1100 UTC 22 January 2019
Temperature: -12.0°C (10°F)
Dewpoint: -18.0°C (-0°F) [RH = 61%]
Pressure (altimeter): 30.06 inches Hg (1018.0 mb)
Winds: variable direction winds at 2 MPH (2 knots; 1.0 m/s)
Visibility: 6 or more miles (10+ km)
Ceiling: at least 12,000 feet AGL
Clouds: sky clear below 12,000 feet AGL
Weather: no significant weather observed at this time

METAR text: UIAA 221030Z 32004MPS 9999 NSC M15/M19 Q1017 R29/410150 NOSIG RMK QFE704/0939
Conditions at: UIAA (CITA/KADALA , RU) observed 1030 UTC 22 January 2019
Temperature: -15.0°C ( 5°F)
Dewpoint: -19.0°C (-2°F) [RH = 71%]
Pressure (altimeter): 30.03 inches Hg (1017.0 mb)
Winds: from the NW (320 degrees) at 9 MPH (8 knots; 4.1 m/s)
Visibility: 6 or more miles (10+ km)
Ceiling: at least 12,000 feet AGL
Clouds: sky clear below 12,000 feet AGL
Weather: no significant weather observed at this time

METAR text: UIAA 221000Z 32003MPS 9999 NSC M14/M19 Q1017 R29/410150 NOSIG RMK QFE704/0939
Conditions at: UIAA (CITA/KADALA , RU) observed 1000 UTC 22 January 2019
Temperature: -14.0°C ( 7°F)
Dewpoint: -19.0°C (-2°F) [RH = 66%]
Pressure (altimeter): 30.03 inches Hg (1017.0 mb)
Winds: from the NW (320 degrees) at 7 MPH (6 knots; 3.1 m/s)
Visibility: 6 or more miles (10+ km)
Ceiling: at least 12,000 feet AGL
Clouds: sky clear below 12,000 feet AGL
Weather: no significant weather observed at this time

METAR text: UIAA 220930Z 32003MPS 9999 NSC M11/M18 Q1016 R29/410150 NOSIG RMK QFE704/0938
Conditions at: UIAA (CITA/KADALA , RU) observed 0930 UTC 22 January 2019
Temperature: -11.0°C (12°F)
Dewpoint: -18.0°C (-0°F) [RH = 56%]
Pressure (altimeter): 30.00 inches Hg (1016.0 mb)
Winds: from the NW (320 degrees) at 7 MPH (6 knots; 3.1 m/s)
Visibility: 6 or more miles (10+ km)
Ceiling: at least 12,000 feet AGL
Clouds: sky clear below 12,000 feet AGL
Weather: no significant weather observed at this time

METAR text: UIAA 220900Z 32004MPS 9999 NSC M09/M17 Q1016 R29/410150 NOSIG RMK QFE704/0938
Conditions at: UIAA (CITA/KADALA , RU) observed 0900 UTC 22 January 2019
Temperature: -9.0°C (16°F)
Dewpoint: -17.0°C ( 1°F) [RH = 52%]
Pressure (altimeter): 30.00 inches Hg (1016.0 mb)
Winds: from the NW (320 degrees) at 9 MPH (8 knots; 4.1 m/s)
Visibility: 6 or more miles (10+ km)
Ceiling: at least 12,000 feet AGL
Clouds: sky clear below 12,000 feet AGL
Weather: no significant weather observed at this time

METAR text: UIAA 220830Z 33005MPS 9999 NSC M07/M17 Q1016 R29/410150 NOSIG RMK QFE703/0938
Conditions at: UIAA (CITA/KADALA , RU) observed 0830 UTC 22 January 2019
Temperature: -7.0°C (19°F)
Dewpoint: -17.0°C ( 1°F) [RH = 45%]
Pressure (altimeter): 30.00 inches Hg (1016.0 mb)
Winds: from the NNW (330 degrees) at 12 MPH (10 knots; 5.1 m/s)
Visibility: 6 or more miles (10+ km)
Ceiling: at least 12,000 feet AGL
Clouds: sky clear below 12,000 feet AGL
Weather: no significant weather observed at this time

METAR text: UIAA 220800Z 33004MPS 9999 NSC M06/M16 Q1015 R29/410150 NOSIG RMK QFE703/0937
Conditions at: UIAA (CITA/KADALA , RU) observed 0800 UTC 22 January 2019
Temperature: -6.0°C (21°F)
Dewpoint: -16.0°C ( 3°F) [RH = 45%]
Pressure (altimeter): 29.97 inches Hg (1015.0 mb)
Winds: from the NNW (330 degrees) at 9 MPH (8 knots; 4.1 m/s)
Visibility: 6 or more miles (10+ km)
Ceiling: at least 12,000 feet AGL
Clouds: sky clear below 12,000 feet AGL
Weather: no significant weather observed at this time

METAR text: UIAA 220730Z 33004MPS 9999 NSC M05/M16 Q1015 R29/410150 NOSIG RMK QFE703/0937
Conditions at: UIAA (CITA/KADALA , RU) observed 0730 UTC 22 January 2019
Temperature: -5.0°C (23°F)
Dewpoint: -16.0°C ( 3°F) [RH = 42%]
Pressure (altimeter): 29.97 inches Hg (1015.0 mb)
Winds: from the NNW (330 degrees) at 9 MPH (8 knots; 4.1 m/s)
Visibility: 6 or more miles (10+ km)
Ceiling: at least 12,000 feet AGL
Clouds: sky clear below 12,000 feet AGL
Weather: no significant weather observed at this time

METAR text: UIAA 220700Z 32004MPS 9999 NSC M05/M16 Q1015 R29/410150 NOSIG RMK QFE703/0937
Conditions at: UIAA (CITA/KADALA , RU) observed 0700 UTC 22 January 2019
Temperature: -5.0°C (23°F)
Dewpoint: -16.0°C ( 3°F) [RH = 42%]
Pressure (altimeter): 29.97 inches Hg (1015.0 mb)
Winds: from the NW (320 degrees) at 9 MPH (8 knots; 4.1 m/s)
Visibility: 6 or more miles (10+ km)
Ceiling: at least 12,000 feet AGL
Clouds: sky clear below 12,000 feet AGL
Weather: no significant weather observed at this time

METAR text: UIAA 220630Z 30004G10MPS 9999 NSC M05/M16 Q1015 R29/410150 NOSIG RMK QFE702/0937
Conditions at: UIAA (CITA/KADALA , RU) observed 0630 UTC 22 January 2019
Temperature: -5.0°C (23°F)
Dewpoint: -16.0°C ( 3°F) [RH = 42%]
Pressure (altimeter): 29.97 inches Hg (1015.0 mb)
Winds: from the WNW (300 degrees) at 9 MPH (8 knots; 4.1 m/s)
gusting to 22 MPH (19 knots; 9.8 m/s)
Visibility: 6 or more miles (10+ km)
Ceiling: at least 12,000 feet AGL
Clouds: sky clear below 12,000 feet AGL
Weather: no significant weather observed at this time

METAR text: UIAA 220600Z 32004MPS 9999 NSC M05/M15 Q1014 R29/410150 NOSIG RMK QFE702/0936
Conditions at: UIAA (CITA/KADALA , RU) observed 0600 UTC 22 January 2019
Temperature: -5.0°C (23°F)
Dewpoint: -15.0°C ( 5°F) [RH = 45%]
Pressure (altimeter): 29.94 inches Hg (1014.0 mb)
Winds: from the NW (320 degrees) at 9 MPH (8 knots; 4.1 m/s)
Visibility: 6 or more miles (10+ km)
Ceiling: at least 12,000 feet AGL
Clouds: sky clear below 12,000 feet AGL
Weather: no significant weather observed at this time

METAR text: UIAA 220530Z 28006MPS 9999 NSC M05/M15 Q1014 R29/410150 NOSIG RMK QFE702/0936
Conditions at: UIAA (CITA/KADALA , RU) observed 0530 UTC 22 January 2019
Temperature: -5.0°C (23°F)
Dewpoint: -15.0°C ( 5°F) [RH = 45%]
Pressure (altimeter): 29.94 inches Hg (1014.0 mb)
Winds: from the W (280 degrees) at 14 MPH (12 knots; 6.2 m/s)
Visibility: 6 or more miles (10+ km)
Ceiling: at least 12,000 feet AGL
Clouds: sky clear below 12,000 feet AGL
Weather: no significant weather observed at this time

METAR text: UIAA 220500Z 28006MPS 9999 NSC M05/M15 Q1014 R29/410150 NOSIG RMK QFE702/0936
Conditions at: UIAA (CITA/KADALA , RU) observed 0500 UTC 22 January 2019
Temperature: -5.0°C (23°F)
Dewpoint: -15.0°C ( 5°F) [RH = 45%]
Pressure (altimeter): 29.94 inches Hg (1014.0 mb)
Winds: from the W (280 degrees) at 14 MPH (12 knots; 6.2 m/s)
Visibility: 6 or more miles (10+ km)
Ceiling: at least 12,000 feet AGL
Clouds: sky clear below 12,000 feet AGL
Weather: no significant weather observed at this time

METAR text: UIAA 220430Z 30005MPS 9999 NSC M05/M14 Q1014 R29/410150 NOSIG RMK QFE702/0937
Conditions at: UIAA (CITA/KADALA , RU) observed 0430 UTC 22 January 2019
Temperature: -5.0°C (23°F)
Dewpoint: -14.0°C ( 7°F) [RH = 49%]
Pressure (altimeter): 29.94 inches Hg (1014.0 mb)
Winds: from the WNW (300 degrees) at 12 MPH (10 knots; 5.1 m/s)
Visibility: 6 or more miles (10+ km)
Ceiling: at least 12,000 feet AGL
Clouds: sky clear below 12,000 feet AGL
Weather: no significant weather observed at this time

METAR text: UIAA 220400Z 30007MPS 9999 NSC M06/M14 Q1014 R29/410150 NOSIG RMK QFE702/0937
Conditions at: UIAA (CITA/KADALA , RU) observed 0400 UTC 22 January 2019
Temperature: -6.0°C (21°F)
Dewpoint: -14.0°C ( 7°F) [RH = 53%]
Pressure (altimeter): 29.94 inches Hg (1014.0 mb)
Winds: from the WNW (300 degrees) at 16 MPH (14 knots; 7.2 m/s)
Visibility: 6 or more miles (10+ km)
Ceiling: at least 12,000 feet AGL
Clouds: sky clear below 12,000 feet AGL
Weather: no significant weather observed at this time

METAR text: UIAA 220330Z 29005MPS 9999 NSC M06/M14 Q1015 R29/410150 NOSIG RMK QFE703/0937
Conditions at: UIAA (CITA/KADALA , RU) observed 0330 UTC 22 January 2019
Temperature: -6.0°C (21°F)
Dewpoint: -14.0°C ( 7°F) [RH = 53%]
Pressure (altimeter): 29.97 inches Hg (1015.0 mb)
Winds: from the WNW (290 degrees) at 12 MPH (10 knots; 5.1 m/s)
Visibility: 6 or more miles (10+ km)
Ceiling: at least 12,000 feet AGL
Clouds: sky clear below 12,000 feet AGL
Weather: no significant weather observed at this time

METAR text: UIAA 220300Z 21002MPS 160V270 9999 FEW043 M08/M14 Q1015 R29/410150 NOSIG RMK QFE703/0937
Conditions at: UIAA (CITA/KADALA , RU) observed 0300 UTC 22 January 2019
Temperature: -8.0°C (18°F)
Dewpoint: -14.0°C ( 7°F) [RH = 62%]
Pressure (altimeter): 29.97 inches Hg (1015.0 mb)
Winds: from the SSW (210 degrees) at 5 MPH (4 knots; 2.1 m/s)
Visibility: 6 or more miles (10+ km)
Ceiling: at least 12,000 feet AGL
Clouds: few clouds at 4300 feet AGL
Weather: no significant weather observed at this time

METAR text: UIAA 220230Z 25004MPS 200V280 9999 FEW043 M09/M14 Q1015 R29/410150 NOSIG RMK QFE703/0937
Conditions at: UIAA (CITA/KADALA , RU) observed 0230 UTC 22 January 2019
Temperature: -9.0°C (16°F)
Dewpoint: -14.0°C ( 7°F) [RH = 67%]
Pressure (altimeter): 29.97 inches Hg (1015.0 mb)
Winds: from the WSW (250 degrees) at 9 MPH (8 knots; 4.1 m/s)
Visibility: 6 or more miles (10+ km)
Ceiling: at least 12,000 feet AGL
Clouds: few clouds at 4300 feet AGL
Weather: no significant weather observed at this time

Forecast for: UIAA (CITA/KADALA , RU)
Text: TAF UIAA 231400Z 2315/2415 30003MPS 9999 SCT040CB
Forecast period: 1500 UTC 23 January 2019 to 1500 UTC 24 January 2019
Forecast type: FROM: standard forecast or significant change
Winds: from the WNW (300 degrees) at 7 MPH (6 knots; 3.1 m/s)
Visibility: 6 or more miles 10+ km)
Ceiling: at least 12,000 feet AGL
Clouds: scattered clouds at 4000 feet AGL
Weather: no significant weather forecast for this period
Text: TEMPO 2318/2402 3100 -SHSN BR
Forecast period: 1800 UTC 23 January 2019 to 0200 UTC 24 January 2019
Forecast type: TEMPORARY: The following changes expected for less than half the time period
Visibility: 1.93 miles (3.11 km)
Ceiling: unknown
Clouds: missing
Weather: -SHSN BR  (light snow showers, mist)